Time;durP1;ratioP1;P1;durP2;ratioP2;P2;SDS_P1;SDS_P2;PMS_P1;PMS_P2;Temp;Humidity;BMP_temperature;BMP_pressure;BME280_temperature;BME280_humidity;BME280_pressure;Samples;Min_cycle;Max_cycle;Signal;HPM_P1;HPM_P2
2021/03/10 00:00:12;;;;;;;22.80;20.43;;;;;;;;;;5094514;28;20444;-10
2021/03/10 00:02:41;;;;;;;23.37;21.27;;;;;;;;;;5094858;28;20459;-10
2021/03/10 00:05:10;;;;;;;25.40;23.10;;;;;;;;;;5077045;28;20471;-10
2021/03/10 00:07:40;;;;;;;23.43;21.30;;;;;;;;;;5093605;28;20438;-11
2021/03/10 00:10:08;;;;;;;24.47;22.20;;;;;;;;;;5094925;28;21081;-11
2021/03/10 00:12:37;;;;;;;26.27;23.77;;;;;;;;;;5092514;28;20498;-10
2021/03/10 00:15:06;;;;;;;24.83;22.63;;;;;;;;;;5094566;28;20468;-11
2021/03/10 00:17:34;;;;;;;26.30;23.70;;;;;;;;;;5094862;28;20436;-10
2021/03/10 00:20:04;;;;;;;24.47;22.07;;;;;;;;;;5094946;28;20440;-11
2021/03/10 00:22:32;;;;;;;25.20;22.60;;;;;;;;;;5094366;28;20443;-10
2021/03/10 00:25:03;;;;;;;27.17;24.40;;;;;;;;;;5095307;28;20447;-11
2021/03/10 00:27:34;;;;;;;24.97;22.57;;;;;;;;;;5095277;28;20546;-13
2021/03/10 00:30:11;;;;;;;27.00;24.23;;;;;;;;;;5104466;28;20519;-13
2021/03/10 00:32:40;;;;;;;24.97;22.47;;;;;;;;;;5100935;28;20431;-13
2021/03/10 00:35:07;;;;;;;26.77;23.93;;;;;;;;;;5101005;28;20479;-14
2021/03/10 00:37:36;;;;;;;26.10;23.40;;;;;;;;;;5072993;28;20484;-11
2021/03/10 00:40:07;;;;;;;27.60;24.70;;;;;;;;;;5080931;28;20448;-11
2021/03/10 00:42:34;;;;;;;26.77;23.97;;;;;;;;;;5081187;28;20440;-11
2021/03/10 00:45:04;;;;;;;25.03;22.47;;;;;;;;;;5086293;28;20489;-13
2021/03/10 00:47:34;;;;;;;27.27;24.50;;;;;;;;;;5067564;28;20494;-12
2021/03/10 00:50:01;;;;;;;25.90;23.00;;;;;;;;;;5068139;28;20483;-13
2021/03/10 00:52:28;;;;;;;25.07;22.47;;;;;;;;;;5068948;28;20452;-12
2021/03/10 00:54:55;;;;;;;25.23;22.77;;;;;;;;;;5085664;28;20457;-12
2021/03/10 00:57:24;;;;;;;26.07;23.47;;;;;;;;;;5087984;28;20461;-12
2021/03/10 00:59:52;;;;;;;26.30;23.43;;;;;;;;;;5089909;28;20535;-12
2021/03/10 01:02:20;;;;;;;27.47;24.67;;;;;;;;;;5069262;28;20483;-13
2021/03/10 01:04:47;;;;;;;27.83;24.93;;;;;;;;;;5091194;28;20437;-13
2021/03/10 01:07:16;;;;;;;26.63;24.00;;;;;;;;;;5091028;28;20593;-13
2021/03/10 01:09:44;;;;;;;29.20;23.90;;;;;;;;;;5090146;28;20551;-11
2021/03/10 01:12:11;;;;;;;27.13;24.53;;;;;;;;;;5073174;28;20444;-13
2021/03/10 01:14:40;;;;;;;27.20;24.57;;;;;;;;;;5090237;28;20482;-13
2021/03/10 01:17:07;;;;;;;25.97;23.17;;;;;;;;;;5089076;28;20454;-15
2021/03/10 01:19:37;;;;;;;28.00;25.30;;;;;;;;;;5089873;28;20444;-11
2021/03/10 01:22:04;;;;;;;28.67;25.90;;;;;;;;;;5054263;28;20499;-12
2021/03/10 01:24:31;;;;;;;29.77;26.77;;;;;;;;;;5090278;28;20457;-12
2021/03/10 01:26:58;;;;;;;29.27;26.20;;;;;;;;;;5091248;28;20526;-14
2021/03/10 01:29:25;;;;;;;27.73;24.90;;;;;;;;;;5110355;28;20511;-14
2021/03/10 01:31:54;;;;;;;27.87;24.87;;;;;;;;;;5109564;28;20432;-11
2021/03/10 01:34:27;;;;;;;28.57;25.63;;;;;;;;;;5092441;28;20455;-13
2021/03/10 01:36:56;;;;;;;27.47;24.50;;;;;;;;;;5110296;28;20817;-13
2021/03/10 01:39:23;;;;;;;28.13;25.03;;;;;;;;;;5110761;28;20436;-13
2021/03/10 01:41:50;;;;;;;25.30;22.90;;;;;;;;;;5110690;28;21550;-13
2021/03/10 01:44:17;;;;;;;29.00;25.30;;;;;;;;;;5111184;28;20825;-12
2021/03/10 01:46:46;;;;;;;27.40;24.50;;;;;;;;;;5109199;28;21138;-12
2021/03/10 01:49:16;;;;;;;26.63;24.00;;;;;;;;;;5110653;28;20456;-13
2021/03/10 01:51:46;;;;;;;26.93;24.20;;;;;;;;;;5108719;28;20445;-13
2021/03/10 01:54:14;;;;;;;27.60;24.93;;;;;;;;;;5111175;28;20428;-12
2021/03/10 01:56:43;;;;;;;26.37;23.77;;;;;;;;;;5109816;28;20882;-12
2021/03/10 01:59:11;;;;;;;26.57;23.57;;;;;;;;;;5110224;28;20832;-12
2021/03/10 02:01:38;;;;;;;27.60;24.63;;;;;;;;;;5110484;28;20436;-13
2021/03/10 02:04:10;;;;;;;28.83;25.10;;;;;;;;;;5093109;28;20867;-13
2021/03/10 02:06:43;;;;;;;26.97;24.23;;;;;;;;;;5088526;28;20452;-14
2021/03/10 02:09:16;;;;;;;27.40;24.60;;;;;;;;;;5098678;28;20493;-12
2021/03/10 02:11:47;;;;;;;25.07;22.50;;;;;;;;;;5096061;28;20437;-11
2021/03/10 02:14:19;;;;;;;26.40;23.80;;;;;;;;;;5096251;28;20452;-12
2021/03/10 02:16:48;;;;;;;26.00;23.33;;;;;;;;;;5092752;28;20485;-11
2021/03/10 02:19:22;;;;;;;28.00;24.73;;;;;;;;;;5096155;28;20466;-11
2021/03/10 02:21:57;;;;;;;27.67;24.70;;;;;;;;;;5097110;28;20471;-11
2021/03/10 02:24:39;;;;;;;27.03;24.27;;;;;;;;;;5096024;28;20702;-12
2021/03/10 02:27:34;;;;;;;31.57;25.37;;;;;;;;;;5096464;28;20460;-12
2021/03/10 02:30:06;;;;;;;29.57;24.27;;;;;;;;;;5074555;28;20456;-11
2021/03/10 02:32:34;;;;;;;28.23;25.20;;;;;;;;;;5097209;28;20510;-11
2021/03/10 02:35:03;;;;;;;26.40;23.70;;;;;;;;;;5097562;28;20475;-11
2021/03/10 02:37:32;;;;;;;28.63;24.87;;;;;;;;;;5098967;28;20474;-11
2021/03/10 02:39:59;;;;;;;28.23;25.43;;;;;;;;;;5098944;28;20559;-10
2021/03/10 02:42:28;;;;;;;27.27;24.47;;;;;;;;;;5069696;28;20607;-11
2021/03/10 02:44:56;;;;;;;26.90;23.70;;;;;;;;;;5077240;28;20558;-11
2021/03/10 02:47:34;;;;;;;25.23;22.60;;;;;;;;;;5076807;28;20827;-11
2021/03/10 02:50:08;;;;;;;26.97;24.37;;;;;;;;;;5075524;28;20432;-11
2021/03/10 02:52:37;;;;;;;25.30;22.90;;;;;;;;;;5077410;28;20512;-10
2021/03/10 02:55:05;;;;;;;28.10;25.10;;;;;;;;;;5058310;28;20796;-9
2021/03/10 02:57:32;;;;;;;25.80;23.20;;;;;;;;;;5076040;28;20464;-10
2021/03/10 03:00:01;;;;;;;28.90;24.70;;;;;;;;;;5076227;28;20474;-10
2021/03/10 03:02:29;;;;;;;25.83;23.27;;;;;;;;;;5076024;28;20448;-11
2021/03/10 03:04:57;;;;;;;30.87;24.93;;;;;;;;;;5077291;28;20467;-11
2021/03/10 03:07:26;;;;;;;26.20;23.53;;;;;;;;;;5080782;28;20988;-11
2021/03/10 03:09:54;;;;;;;27.60;24.80;;;;;;;;;;5098680;28;20450;-11
2021/03/10 03:12:22;;;;;;;27.30;24.60;;;;;;;;;;5096714;28;20431;-11
2021/03/10 03:14:50;;;;;;;25.20;22.40;;;;;;;;;;5096113;28;20571;-12
2021/03/10 03:17:19;;;;;;;26.23;23.53;;;;;;;;;;5096481;28;20897;-11
2021/03/10 03:19:47;;;;;;;25.93;23.30;;;;;;;;;;5096698;28;20447;-10
2021/03/10 03:22:16;;;;;;;27.47;24.70;;;;;;;;;;5095819;28;20979;-12
2021/03/10 03:24:44;;;;;;;27.80;24.80;;;;;;;;;;5095867;28;20427;-10
2021/03/10 03:27:25;;;;;;;27.17;24.07;;;;;;;;;;5096359;28;20428;-11
2021/03/10 03:29:54;;;;;;;27.57;24.57;;;;;;;;;;5096453;28;20455;-10
2021/03/10 03:32:24;;;;;;;27.90;24.90;;;;;;;;;;5094556;28;20487;-10
2021/03/10 03:34:51;;;;;;;27.30;24.40;;;;;;;;;;5095886;28;20475;-11
2021/03/10 03:37:20;;;;;;;30.63;27.10;;;;;;;;;;5094376;28;20447;-12
2021/03/10 03:39:50;;;;;;;31.30;25.23;;;;;;;;;;5095615;28;20440;-11
2021/03/10 03:42:18;;;;;;;26.17;23.50;;;;;;;;;;5095747;28;20703;-11
2021/03/10 03:44:46;;;;;;;27.90;24.90;;;;;;;;;;5095931;28;20538;-11
2021/03/10 03:47:13;;;;;;;29.37;24.23;;;;;;;;;;5096644;28;20470;-12
2021/03/10 03:49:42;;;;;;;27.27;24.47;;;;;;;;;;5097324;28;20509;-11
2021/03/10 03:52:10;;;;;;;28.17;25.20;;;;;;;;;;5096018;28;20980;-11
2021/03/10 03:54:41;;;;;;;30.40;25.67;;;;;;;;;;5094635;28;20728;-11
2021/03/10 03:57:08;;;;;;;27.97;24.13;;;;;;;;;;5093005;28;20468;-12
2021/03/10 03:59:37;;;;;;;27.17;24.10;;;;;;;;;;5095224;28;20902;-11
2021/03/10 04:02:04;;;;;;;32.57;25.80;;;;;;;;;;5077176;28;20479;-10
2021/03/10 04:04:32;;;;;;;31.10;25.73;;;;;;;;;;5096159;28;20501;-11
2021/03/10 04:07:01;;;;;;;27.27;23.47;;;;;;;;;;5094678;28;20438;-11
2021/03/10 04:09:28;;;;;;;29.37;25.80;;;;;;;;;;5094382;28;20502;-11
2021/03/10 04:11:57;;;;;;;28.37;24.57;;;;;;;;;;5085023;28;20432;-11
2021/03/10 04:14:25;;;;;;;29.67;25.50;;;;;;;;;;5094249;28;20432;-11
2021/03/10 04:16:53;;;;;;;29.63;23.30;;;;;;;;;;5095273;28;20487;-11
2021/03/10 04:19:20;;;;;;;31.23;25.53;;;;;;;;;;5092724;28;20924;-11
2021/03/10 04:21:48;;;;;;;30.47;25.83;;;;;;;;;;5095699;28;20458;-12
2021/03/10 04:24:16;;;;;;;29.90;25.83;;;;;;;;;;5095170;28;20450;-11
2021/03/10 04:26:44;;;;;;;28.17;25.17;;;;;;;;;;5095364;28;20753;-11
2021/03/10 04:29:13;;;;;;;30.80;24.80;;;;;;;;;;5093233;28;20519;-11
2021/03/10 04:31:41;;;;;;;32.07;25.93;;;;;;;;;;5099780;28;20775;-11
2021/03/10 04:34:27;;;;;;;30.50;25.13;;;;;;;;;;5099124;28;20459;-11
2021/03/10 04:36:55;;;;;;;29.87;25.93;;;;;;;;;;5081679;28;20581;-11
2021/03/10 04:39:23;;;;;;;30.90;27.57;;;;;;;;;;5099428;28;20472;-10
2021/03/10 04:41:50;;;;;;;31.43;26.27;;;;;;;;;;5099458;28;20464;-11
2021/03/10 04:44:18;;;;;;;29.87;26.70;;;;;;;;;;5095314;28;20487;-11
2021/03/10 04:46:46;;;;;;;34.67;26.60;;;;;;;;;;5098487;28;20463;-11
2021/03/10 04:49:14;;;;;;;29.80;26.37;;;;;;;;;;5098536;28;20489;-10
2021/03/10 04:51:42;;;;;;;32.43;25.67;;;;;;;;;;5098455;28;20470;-10
2021/03/10 04:54:10;;;;;;;30.47;25.50;;;;;;;;;;5097901;28;20508;-12
2021/03/10 04:56:39;;;;;;;27.17;24.07;;;;;;;;;;5097283;28;20463;-11
2021/03/10 04:59:06;;;;;;;30.77;26.70;;;;;;;;;;5098617;28;20475;-10
2021/03/10 05:01:35;;;;;;;32.37;26.20;;;;;;;;;;5097819;28;20960;-11
2021/03/10 05:04:03;;;;;;;33.67;27.00;;;;;;;;;;5096562;28;20440;-10
2021/03/10 05:06:30;;;;;;;30.77;26.17;;;;;;;;;;5097101;28;20456;-12
2021/03/10 05:08:57;;;;;;;32.10;25.97;;;;;;;;;;5094716;28;20487;-11
2021/03/10 05:11:26;;;;;;;30.33;26.67;;;;;;;;;;5097475;28;20494;-11
2021/03/10 05:13:54;;;;;;;32.23;26.43;;;;;;;;;;5097864;28;20849;-10
2021/03/10 05:16:23;;;;;;;35.50;27.13;;;;;;;;;;5078165;28;20778;-11
2021/03/10 05:18:51;;;;;;;35.70;28.87;;;;;;;;;;5095445;28;20494;-11
2021/03/10 05:21:20;;;;;;;30.80;26.83;;;;;;;;;;5095398;28;20485;-10
2021/03/10 05:23:48;;;;;;;34.83;28.57;;;;;;;;;;5094150;28;20777;-11
2021/03/10 05:26:16;;;;;;;37.27;28.10;;;;;;;;;;5093467;28;20562;-11
2021/03/10 05:28:43;;;;;;;36.13;28.77;;;;;;;;;;5094032;28;20447;-11
2021/03/10 05:31:10;;;;;;;34.63;30.63;;;;;;;;;;5092425;28;20459;-11
2021/03/10 05:33:37;;;;;;;33.23;29.60;;;;;;;;;;5092135;28;20431;-11
2021/03/10 05:36:06;;;;;;;30.30;26.87;;;;;;;;;;5092728;28;20475;-12
2021/03/10 05:38:35;;;;;;;30.70;27.17;;;;;;;;;;5092455;28;20492;-11
2021/03/10 05:41:02;;;;;;;34.77;27.40;;;;;;;;;;5093379;28;20436;-11
2021/03/10 05:43:31;;;;;;;30.53;26.80;;;;;;;;;;5093071;28;20737;-10
2021/03/10 05:45:59;;;;;;;34.10;28.50;;;;;;;;;;5091029;28;20837;-11
2021/03/10 05:48:27;;;;;;;37.80;33.80;;;;;;;;;;5090070;28;20447;-10
2021/03/10 05:50:55;;;;;;;32.63;29.20;;;;;;;;;;5091738;28;20448;-11
2021/03/10 05:53:26;;;;;;;30.40;27.10;;;;;;;;;;5089754;28;20440;-11
2021/03/10 05:55:55;;;;;;;31.50;27.97;;;;;;;;;;5087544;28;20464;-10
2021/03/10 05:58:24;;;;;;;33.47;29.17;;;;;;;;;;5090484;28;20455;-10
2021/03/10 06:00:52;;;;;;;32.47;29.03;;;;;;;;;;5090721;28;20536;-11
2021/03/10 06:03:20;;;;;;;36.00;29.07;;;;;;;;;;5086051;28;20454;-11
2021/03/10 06:06:00;;;;;;;33.90;29.80;;;;;;;;;;5086763;28;20559;-10
2021/03/10 06:08:35;;;;;;;40.13;31.03;;;;;;;;;;5088347;28;20698;-10
2021/03/10 06:11:05;;;;;;;40.60;31.90;;;;;;;;;;5087561;28;20427;-10
2021/03/10 06:13:35;;;;;;;41.53;34.33;;;;;;;;;;5087313;28;20546;-11
2021/03/10 06:16:03;;;;;;;37.93;30.00;;;;;;;;;;5084578;28;20464;-11
2021/03/10 06:18:31;;;;;;;31.80;28.40;;;;;;;;;;5086082;28;20868;-11
2021/03/10 06:21:06;;;;;;;31.37;27.70;;;;;;;;;;5085054;28;20472;-11
2021/03/10 06:23:36;;;;;;;34.13;28.63;;;;;;;;;;5067658;28;20602;-10
2021/03/10 06:26:03;;;;;;;32.90;27.63;;;;;;;;;;5083709;28;20470;-11
2021/03/10 06:28:33;;;;;;;30.03;26.40;;;;;;;;;;5081906;28;20447;-12
2021/03/10 06:31:01;;;;;;;34.60;29.17;;;;;;;;;;5059133;28;20460;-11
2021/03/10 06:33:29;;;;;;;33.70;28.40;;;;;;;;;;5049838;28;20484;-12
2021/03/10 06:35:56;;;;;;;32.67;26.80;;;;;;;;;;5050898;28;20678;-12
2021/03/10 06:38:24;;;;;;;33.73;27.77;;;;;;;;;;5052147;28;20447;-11
2021/03/10 06:40:53;;;;;;;33.63;29.50;;;;;;;;;;5051157;28;20441;-11
2021/03/10 06:43:21;;;;;;;35.37;29.83;;;;;;;;;;5052203;28;20768;-12
2021/03/10 06:45:48;;;;;;;32.57;27.57;;;;;;;;;;5048750;28;20687;-13
2021/03/10 06:48:19;;;;;;;33.57;28.73;;;;;;;;;;5048633;28;20823;-11
2021/03/10 06:50:47;;;;;;;30.83;26.50;;;;;;;;;;5051947;28;20499;-11
2021/03/10 06:53:14;;;;;;;34.17;27.70;;;;;;;;;;5052544;28;20489;-10
2021/03/10 06:55:42;;;;;;;36.60;28.70;;;;;;;;;;5053508;28;21184;-11
2021/03/10 06:58:10;;;;;;;36.40;28.17;;;;;;;;;;5048721;28;20568;-11
2021/03/10 07:00:38;;;;;;;32.77;28.07;;;;;;;;;;5042022;28;21102;-11
2021/03/10 07:03:06;;;;;;;37.17;30.63;;;;;;;;;;5042239;28;20440;-10
2021/03/10 07:05:36;;;;;;;36.83;29.20;;;;;;;;;;5043889;28;21028;-10
2021/03/10 07:08:11;;;;;;;33.07;28.00;;;;;;;;;;5048634;28;20460;-11
2021/03/10 07:10:41;;;;;;;36.43;29.10;;;;;;;;;;5048641;28;20439;-10
2021/03/10 07:13:13;;;;;;;35.60;28.67;;;;;;;;;;5045281;28;20453;-11
2021/03/10 07:15:42;;;;;;;37.90;27.60;;;;;;;;;;5046244;28;21126;-11
2021/03/10 07:18:10;;;;;;;34.23;28.60;;;;;;;;;;5050379;28;20468;-11
2021/03/10 07:20:44;;;;;;;36.37;30.13;;;;;;;;;;5047392;28;20457;-12
2021/03/10 07:23:14;;;;;;;36.93;27.47;;;;;;;;;;5045350;28;20440;-10
2021/03/10 07:25:43;;;;;;;39.07;29.50;;;;;;;;;;5048723;28;20437;-11
2021/03/10 07:28:15;;;;;;;40.37;27.80;;;;;;;;;;5045488;28;20508;-12
2021/03/10 07:30:44;;;;;;;38.93;31.10;;;;;;;;;;5044951;28;20553;-12
2021/03/10 07:33:13;;;;;;;32.80;27.67;;;;;;;;;;5045877;28;20482;-11
2021/03/10 07:35:47;;;;;;;37.27;27.80;;;;;;;;;;5048102;28;21201;-12
2021/03/10 07:38:15;;;;;;;33.03;26.07;;;;;;;;;;5046923;28;20901;-11
2021/03/10 07:40:53;;;;;;;35.03;27.70;;;;;;;;;;5055463;28;20530;-11
2021/03/10 07:43:22;;;;;;;37.00;28.43;;;;;;;;;;5054580;28;20436;-11
2021/03/10 07:45:50;;;;;;;35.13;26.67;;;;;;;;;;5051242;28;20439;-10
2021/03/10 07:48:18;;;;;;;34.97;27.67;;;;;;;;;;5064724;28;20452;-10
2021/03/10 07:50:46;;;;;;;36.20;28.60;;;;;;;;;;5063119;28;20443;-10
2021/03/10 07:53:14;;;;;;;33.13;28.07;;;;;;;;;;5061584;28;20859;-11
2021/03/10 07:55:44;;;;;;;31.50;26.70;;;;;;;;;;5063536;28;21291;-11
2021/03/10 07:58:12;;;;;;;40.60;29.00;;;;;;;;;;5065611;28;20893;-10
2021/03/10 08:00:41;;;;;;;34.37;27.27;;;;;;;;;;5041354;28;20440;-10
2021/03/10 08:03:08;;;;;;;33.23;27.50;;;;;;;;;;5061467;28;20447;-13
2021/03/10 08:05:39;;;;;;;33.87;26.30;;;;;;;;;;5041811;28;21050;-10
2021/03/10 08:08:16;;;;;;;31.20;26.37;;;;;;;;;;5047965;28;20788;-12
2021/03/10 08:10:43;;;;;;;40.40;29.50;;;;;;;;;;5063360;28;20745;-12
2021/03/10 08:13:16;;;;;;;33.77;26.63;;;;;;;;;;5064294;28;20439;-11
2021/03/10 08:15:45;;;;;;;33.13;24.70;;;;;;;;;;5037307;28;20476;-11
2021/03/10 08:18:20;;;;;;;33.60;26.03;;;;;;;;;;5042779;28;20444;-11
2021/03/10 08:20:50;;;;;;;31.43;25.13;;;;;;;;;;5051712;28;20462;-11
2021/03/10 08:23:17;;;;;;;33.17;25.47;;;;;;;;;;5041471;28;20455;-11
2021/03/10 08:25:51;;;;;;;34.57;26.77;;;;;;;;;;5038373;28;20457;-10
2021/03/10 08:28:18;;;;;;;34.30;25.30;;;;;;;;;;5040867;28;20455;-12
2021/03/10 08:30:47;;;;;;;32.63;25.47;;;;;;;;;;5041284;28;20448;-11
2021/03/10 08:33:15;;;;;;;31.63;28.20;;;;;;;;;;5041410;28;20510;-11
2021/03/10 08:35:51;;;;;;;39.93;30.63;;;;;;;;;;5025674;28;20480;-11
2021/03/10 08:38:20;;;;;;;31.37;26.50;;;;;;;;;;5042204;28;20436;-11
2021/03/10 08:40:47;;;;;;;34.40;27.80;;;;;;;;;;5049088;28;20483;-11
2021/03/10 08:43:22;;;;;;;36.80;28.43;;;;;;;;;;5064501;28;20458;-11
2021/03/10 08:45:56;;;;;;;35.47;25.60;;;;;;;;;;5061958;28;20459;-12
2021/03/10 08:48:25;;;;;;;37.13;27.90;;;;;;;;;;5059146;28;20538;-11
2021/03/10 08:50:53;;;;;;;37.03;26.83;;;;;;;;;;5005834;28;21004;-11
2021/03/10 08:53:25;;;;;;;30.57;26.07;;;;;;;;;;5003544;28;20535;-12
2021/03/10 08:56:05;;;;;;;33.60;27.37;;;;;;;;;;4996911;28;20786;-12
2021/03/10 08:58:35;;;;;;;32.77;28.53;;;;;;;;;;4999376;28;20990;-12
2021/03/10 09:01:14;;;;;;;35.40;27.60;;;;;;;;;;4998834;28;20465;-11
2021/03/10 09:03:43;;;;;;;36.83;27.17;;;;;;;;;;5011040;28;20441;-11
2021/03/10 09:06:13;;;;;;;29.63;26.43;;;;;;;;;;5016438;28;20841;-10
2021/03/10 09:08:42;;;;;;;31.63;26.83;;;;;;;;;;5012043;28;20690;-11
2021/03/10 09:11:14;;;;;;;30.60;27.40;;;;;;;;;;5016142;28;21020;-10
2021/03/10 09:14:04;;;;;;;33.60;27.00;;;;;;;;;;5022334;28;20491;-10
2021/03/10 09:16:55;;;;;;;31.47;26.17;;;;;;;;;;5059102;28;20629;-13
2021/03/10 09:19:33;;;;;;;37.73;28.63;;;;;;;;;;5037410;28;20474;-12
2021/03/10 09:22:12;;;;;;;32.87;29.00;;;;;;;;;;5037844;28;20618;-10
2021/03/10 09:25:03;;;;;;;31.53;28.10;;;;;;;;;;5043170;28;20889;-11
2021/03/10 09:27:32;;;;;;;30.20;27.00;;;;;;;;;;5039493;28;20466;-12
2021/03/10 09:30:07;;;;;;;34.57;26.23;;;;;;;;;;5036504;28;20598;-10
2021/03/10 09:32:45;;;;;;;35.47;26.57;;;;;;;;;;5042822;28;20448;-10
2021/03/10 09:35:17;;;;;;;31.90;26.93;;;;;;;;;;5047314;28;20507;-12
2021/03/10 09:37:47;;;;;;;33.20;27.50;;;;;;;;;;5042453;28;20540;-11
2021/03/10 09:40:15;;;;;;;32.43;26.97;;;;;;;;;;5042335;28;20483;-10
2021/03/10 09:42:46;;;;;;;33.50;28.47;;;;;;;;;;5038398;28;20499;-10
2021/03/10 09:45:23;;;;;;;34.37;28.10;;;;;;;;;;5063733;28;20460;-12
2021/03/10 09:47:53;;;;;;;32.83;27.00;;;;;;;;;;5029696;28;21160;-11
2021/03/10 09:50:28;;;;;;;33.17;26.63;;;;;;;;;;5040698;28;20574;-10
2021/03/10 09:52:56;;;;;;;36.63;28.30;;;;;;;;;;5060031;28;20436;-9
2021/03/10 09:55:25;;;;;;;33.20;26.83;;;;;;;;;;5055175;28;20451;-11
2021/03/10 09:58:07;;;;;;;32.23;25.53;;;;;;;;;;5036501;28;20455;-11
2021/03/10 10:00:41;;;;;;;34.90;28.20;;;;;;;;;;5053588;28;20485;-10
2021/03/10 10:03:11;;;;;;;28.60;25.60;;;;;;;;;;5038187;28;20447;-12
2021/03/10 10:05:41;;;;;;;34.77;27.90;;;;;;;;;;5037635;28;20502;-11
2021/03/10 10:08:11;;;;;;;34.30;27.30;;;;;;;;;;5035843;28;20501;-10
2021/03/10 10:10:42;;;;;;;32.73;26.90;;;;;;;;;;5015498;28;20488;-12
2021/03/10 10:13:21;;;;;;;30.23;26.23;;;;;;;;;;5038367;28;20587;-10
2021/03/10 10:15:54;;;;;;;30.33;26.83;;;;;;;;;;5022290;28;20464;-10
2021/03/10 10:18:23;;;;;;;32.00;27.13;;;;;;;;;;5018417;28;20441;-11
2021/03/10 10:20:54;;;;;;;30.43;27.10;;;;;;;;;;5013845;28;20485;-15
2021/03/10 10:23:26;;;;;;;27.53;24.40;;;;;;;;;;5040219;28;20449;-13
2021/03/10 10:26:03;;;;;;;30.10;25.80;;;;;;;;;;5027157;28;20432;-13
2021/03/10 10:28:34;;;;;;;27.80;24.20;;;;;;;;;;5026036;28;21125;-14
2021/03/10 10:31:03;;;;;;;30.30;24.90;;;;;;;;;;5018105;28;20551;-14
2021/03/10 10:33:35;;;;;;;31.87;25.47;;;;;;;;;;5025274;28;21053;-14
2021/03/10 10:36:04;;;;;;;25.90;22.90;;;;;;;;;;5044217;28;20487;-13
2021/03/10 10:38:33;;;;;;;29.93;25.70;;;;;;;;;;5024414;28;20530;-13
2021/03/10 10:41:03;;;;;;;26.50;22.73;;;;;;;;;;5036805;28;20479;-12
2021/03/10 10:43:34;;;;;;;26.07;22.60;;;;;;;;;;5020803;28;20456;-12
2021/03/10 10:46:03;;;;;;;29.23;23.10;;;;;;;;;;5040251;28;20441;-12
2021/03/10 10:48:44;;;;;;;27.20;23.80;;;;;;;;;;5036036;28;20455;-13
2021/03/10 10:51:21;;;;;;;27.00;21.63;;;;;;;;;;5021026;28;20498;-13
2021/03/10 10:53:58;;;;;;;23.90;20.50;;;;;;;;;;5043303;28;20479;-14
2021/03/10 10:56:28;;;;;;;24.77;22.07;;;;;;;;;;5035522;28;20710;-13
2021/03/10 10:58:58;;;;;;;25.87;23.17;;;;;;;;;;5038504;28;20439;-12
2021/03/10 11:01:31;;;;;;;25.53;20.77;;;;;;;;;;5036674;28;20461;-12
2021/03/10 11:03:59;;;;;;;22.90;20.50;;;;;;;;;;5019573;28;20450;-13
2021/03/10 11:06:27;;;;;;;22.37;19.87;;;;;;;;;;5015039;28;20465;-13
2021/03/10 11:08:54;;;;;;;24.93;20.40;;;;;;;;;;5017941;28;20918;-12
2021/03/10 11:11:22;;;;;;;23.67;21.30;;;;;;;;;;5053000;28;20459;-13
2021/03/10 11:13:55;;;;;;;22.87;20.60;;;;;;;;;;5051445;28;20450;-13
2021/03/10 11:16:28;;;;;;;25.57;20.70;;;;;;;;;;5042902;28;20537;-13
2021/03/10 11:19:14;;;;;;;24.30;17.77;;;;;;;;;;5054773;28;20584;-12
2021/03/10 11:21:45;;;;;;;21.50;19.30;;;;;;;;;;5059414;28;20513;-14
2021/03/10 11:24:15;;;;;;;21.10;18.87;;;;;;;;;;5076246;28;20439;-12
2021/03/10 11:26:43;;;;;;;17.20;15.63;;;;;;;;;;5039724;28;20447;-14
2021/03/10 11:29:14;;;;;;;17.03;15.40;;;;;;;;;;5055516;28;20431;-13
2021/03/10 11:31:42;;;;;;;17.90;15.90;;;;;;;;;;5050878;28;20466;-14
2021/03/10 11:34:11;;;;;;;15.73;14.30;;;;;;;;;;5069889;28;20439;-13
2021/03/10 11:36:39;;;;;;;16.13;14.53;;;;;;;;;;5052024;28;20468;-13
2021/03/10 11:39:09;;;;;;;15.40;14.03;;;;;;;;;;5042832;28;20448;-14
2021/03/10 11:41:37;;;;;;;15.87;14.50;;;;;;;;;;5076599;28;21176;-12
2021/03/10 11:44:05;;;;;;;14.43;13.13;;;;;;;;;;5055628;28;20447;-13
2021/03/10 11:46:32;;;;;;;16.30;14.90;;;;;;;;;;5046813;28;20468;-12
2021/03/10 11:48:59;;;;;;;14.93;13.43;;;;;;;;;;5055870;28;20451;-12
2021/03/10 11:51:27;;;;;;;18.27;16.43;;;;;;;;;;5035104;28;20536;-11
2021/03/10 11:53:55;;;;;;;14.87;13.40;;;;;;;;;;5052612;28;20560;-12
2021/03/10 11:56:22;;;;;;;17.37;15.67;;;;;;;;;;5054489;28;20461;-13
2021/03/10 11:58:50;;;;;;;18.30;16.30;;;;;;;;;;5020713;28;20448;-12
2021/03/10 12:01:27;;;;;;;18.10;16.30;;;;;;;;;;5039488;28;20460;-15
2021/03/10 12:03:56;;;;;;;19.50;17.27;;;;;;;;;;5042621;28;20498;-13
2021/03/10 12:06:35;;;;;;;18.57;16.77;;;;;;;;;;5073648;28;20443;-13
2021/03/10 12:09:03;;;;;;;16.07;14.47;;;;;;;;;;5076039;28;20944;-13
2021/03/10 12:11:31;;;;;;;19.63;16.07;;;;;;;;;;5061333;28;20440;-13
2021/03/10 12:13:58;;;;;;;18.80;16.70;;;;;;;;;;5075980;28;20452;-13
2021/03/10 12:16:35;;;;;;;17.27;15.50;;;;;;;;;;5076073;28;20521;-13
2021/03/10 12:19:02;;;;;;;17.90;16.00;;;;;;;;;;5041031;28;20558;-13
2021/03/10 12:21:30;;;;;;;16.93;15.17;;;;;;;;;;5061974;28;20441;-13
2021/03/10 12:23:58;;;;;;;16.23;14.67;;;;;;;;;;5057724;28;20532;-13
2021/03/10 12:26:28;;;;;;;15.60;14.10;;;;;;;;;;5044558;28;20459;-12
2021/03/10 12:28:55;;;;;;;16.13;14.57;;;;;;;;;;5076839;28;20482;-12
2021/03/10 12:31:24;;;;;;;14.53;13.13;;;;;;;;;;5077561;28;20701;-12
2021/03/10 12:33:51;;;;;;;15.63;14.07;;;;;;;;;;5061288;28;20911;-11
2021/03/10 12:36:18;;;;;;;15.43;14.00;;;;;;;;;;5059726;28;20468;-12
2021/03/10 12:38:45;;;;;;;15.00;13.60;;;;;;;;;;5044347;28;20452;-13
2021/03/10 12:41:13;;;;;;;15.80;14.20;;;;;;;;;;5059040;28;20837;-11
2021/03/10 12:43:41;;;;;;;15.40;14.10;;;;;;;;;;5061225;28;21116;-12
2021/03/10 12:46:09;;;;;;;13.20;12.03;;;;;;;;;;5058400;28;20475;-11
2021/03/10 12:48:36;;;;;;;14.43;13.23;;;;;;;;;;5076909;28;20458;-13
2021/03/10 12:51:03;;;;;;;13.87;12.67;;;;;;;;;;5058163;28;20440;-13
2021/03/10 12:53:31;;;;;;;14.63;13.30;;;;;;;;;;5047294;28;20461;-14
2021/03/10 12:55:58;;;;;;;14.30;13.10;;;;;;;;;;5082436;28;20479;-13
2021/03/10 13:04:28;;;;;;;15.23;14.03;;;;;;;;;;5070688;28;20447;-14
2021/03/10 13:06:56;;;;;;;15.97;14.57;;;;;;;;;;5076012;28;20451;-12
2021/03/10 13:09:23;;;;;;;15.90;14.37;;;;;;;;;;5061593;28;20673;-12
2021/03/10 13:11:51;;;;;;;13.97;12.87;;;;;;;;;;5063842;28;20501;-12
2021/03/10 13:14:24;;;;;;;13.57;12.47;;;;;;;;;;5075849;28;20499;-14
2021/03/10 13:16:53;;;;;;;13.80;12.60;;;;;;;;;;5069114;28;20587;-10
2021/03/10 13:19:21;;;;;;;15.10;13.70;;;;;;;;;;5063336;28;20436;-11
2021/03/10 13:21:49;;;;;;;15.30;13.90;;;;;;;;;;5077177;28;20459;-13
2021/03/10 13:24:17;;;;;;;14.30;13.00;;;;;;;;;;5073816;28;20456;-14
2021/03/10 13:26:46;;;;;;;15.30;13.90;;;;;;;;;;5063487;28;20897;-13
2021/03/10 13:29:14;;;;;;;16.03;14.53;;;;;;;;;;5058008;28;20516;-13
2021/03/10 13:31:43;;;;;;;16.13;14.70;;;;;;;;;;5072066;28;20779;-13
2021/03/10 13:34:18;;;;;;;13.70;12.43;;;;;;;;;;5068634;28;20451;-14
2021/03/10 13:36:46;;;;;;;15.87;14.47;;;;;;;;;;5066828;28;20531;-14
2021/03/10 13:39:14;;;;;;;15.13;12.60;;;;;;;;;;5048471;28;20973;-13
2021/03/10 13:41:50;;;;;;;13.73;12.60;;;;;;;;;;5067717;28;20460;-12
2021/03/10 13:44:18;;;;;;;15.50;14.10;;;;;;;;;;5065440;28;20562;-14
2021/03/10 13:46:45;;;;;;;15.27;13.97;;;;;;;;;;5080272;28;20489;-14
2021/03/10 13:49:14;;;;;;;14.70;13.40;;;;;;;;;;5079170;28;21146;-12
2021/03/10 13:51:41;;;;;;;14.13;12.90;;;;;;;;;;5069228;28;20443;-12
2021/03/10 13:54:09;;;;;;;17.10;14.10;;;;;;;;;;5069306;28;20786;-12
2021/03/10 13:56:36;;;;;;;14.73;13.33;;;;;;;;;;5057963;28;20486;-13
2021/03/10 13:59:03;;;;;;;14.10;12.80;;;;;;;;;;5050430;28;20447;-12
2021/03/10 14:01:32;;;;;;;11.97;11.07;;;;;;;;;;5035894;28;20453;-12
2021/03/10 14:03:59;;;;;;;14.20;12.70;;;;;;;;;;5071465;28;20445;-11
2021/03/10 14:06:28;;;;;;;13.23;12.13;;;;;;;;;;5090001;28;20759;-13
2021/03/10 14:08:56;;;;;;;13.70;12.43;;;;;;;;;;5094293;28;20475;-14
2021/03/10 14:11:24;;;;;;;14.20;12.90;;;;;;;;;;5094423;28;20500;-13
2021/03/10 14:13:52;;;;;;;14.53;13.17;;;;;;;;;;5074701;28;20448;-13
2021/03/10 14:16:19;;;;;;;13.27;12.17;;;;;;;;;;5092956;28;20491;-13
2021/03/10 14:18:47;;;;;;;14.77;13.70;;;;;;;;;;5094394;28;20446;-14
2021/03/10 14:21:16;;;;;;;13.63;12.47;;;;;;;;;;5093104;28;20448;-14
2021/03/10 14:23:44;;;;;;;13.33;12.30;;;;;;;;;;5094979;28;20448;-13
2021/03/10 14:26:12;;;;;;;13.30;12.20;;;;;;;;;;5069703;28;20610;-14
2021/03/10 14:28:40;;;;;;;13.93;12.57;;;;;;;;;;5076167;28;20447;-14
2021/03/10 14:31:08;;;;;;;12.50;11.30;;;;;;;;;;5076839;28;21031;-13
2021/03/10 14:33:48;;;;;;;12.00;10.90;;;;;;;;;;5086628;28;20982;-13
2021/03/10 14:36:16;;;;;;;13.00;11.90;;;;;;;;;;5096030;28;20941;-14